Time;durP1;ratioP1;P1;durP2;ratioP2;P2;SDS_P1;SDS_P2;PMS_P1;PMS_P2;Temp;Humidity;BMP_temperature;BMP_pressure;BME280_temperature;BME280_humidity;BME280_pressure;Samples;Min_cycle;Max_cycle;Signal;HPM_P1;HPM_P2
2023/04/02 00:01:49;;;;;;;;;;;;;;;8.36;59.82;91957.25;2064492;69;20061;-76
2023/04/02 00:04:21;;;;;;;;;;;;;;;8.41;59.71;91958.22;2064702;69;20045;-75
2023/04/02 00:07:09;;;;;;;;;;;;;;;8.44;59.56;91959.06;2053758;69;20540;-75
2023/04/02 00:09:37;;;;;;;;;;;;;;;8.32;59.78;91953.47;2064593;69;20429;-76
2023/04/02 00:12:14;;;;;;;;;;;;;;;8.34;59.18;91954.31;2064782;69;20112;-77
2023/04/02 00:14:44;;;;;;;;;;;;;;;8.34;59.65;91950.78;2061857;69;20112;-77
2023/04/02 00:17:09;;;;;;;;;;;;;;;8.36;59.44;91951.66;2048405;69;20137;-76
2023/04/02 00:19:40;;;;;;;;;;;;;;;8.35;59.45;91952.25;2065148;69;20054;-77
2023/04/02 00:22:19;;;;;;;;;;;;;;;8.29;59.56;91951.88;2064942;69;20085;-75
2023/04/02 00:24:45;;;;;;;;;;;;;;;8.30;58.38;91958.97;2064810;69;20053;-74
2023/04/02 00:27:17;;;;;;;;;;;;;;;8.21;58.83;91957.03;2048454;69;20136;-77
2023/04/02 00:29:53;;;;;;;;;;;;;;;8.35;58.65;91958.56;2065139;69;20501;-77
2023/04/02 00:32:34;;;;;;;;;;;;;;;8.35;59.20;91955.03;2065261;69;20498;-78
2023/04/02 00:35:00;;;;;;;;;;;;;;;8.39;59.41;91958.13;2065187;69;20049;-77
2023/04/02 00:37:27;;;;;;;;;;;;;;;8.31;59.48;91957.63;2048492;69;20075;-73
2023/04/02 00:40:04;;;;;;;;;;;;;;;8.32;59.51;91959.78;2048490;69;20061;-75
2023/04/02 00:42:30;;;;;;;;;;;;;;;8.30;60.29;91950.56;2065274;69;20523;-77
2023/04/02 00:44:57;;;;;;;;;;;;;;;8.15;59.93;91946.94;2065397;69;20147;-78
2023/04/02 00:47:26;;;;;;;;;;;;;;;8.21;59.93;91949.34;2048837;69;20172;-76
2023/04/02 00:50:05;;;;;;;;;;;;;;;8.22;59.37;91955.69;2045499;69;20053;-76
2023/04/02 00:52:31;;;;;;;;;;;;;;;8.21;59.82;91951.44;2060533;69;20071;-76
2023/04/02 00:55:33;;;;;;;;;;;;;;;8.08;61.22;91955.59;2065547;69;20100;-77
2023/04/02 00:57:59;;;;;;;;;;;;;;;8.03;60.83;91956.72;2038368;70;20067;-76
2023/04/02 01:00:32;;;;;;;;;;;;;;;7.98;61.21;91950.16;2038248;69;20622;-77
2023/04/02 01:03:16;;;;;;;;;;;;;;;8.01;60.41;91957.31;2035753;70;20063;-77
2023/04/02 01:05:44;;;;;;;;;;;;;;;7.93;61.67;91954.06;2038400;70;20059;-77
2023/04/02 01:08:28;;;;;;;;;;;;;;;7.90;61.44;91958.09;2049078;69;20084;-77
2023/04/02 01:11:02;;;;;;;;;;;;;;;7.91;61.73;91956.72;2038560;70;20055;-77
2023/04/02 01:13:48;;;;;;;;;;;;;;;7.77;61.69;91953.84;2038532;70;20083;-76
2023/04/02 01:16:20;;;;;;;;;;;;;;;7.81;62.92;91964.56;2038674;70;20052;-73
2023/04/02 01:19:00;;;;;;;;;;;;;;;7.83;62.42;91962.63;2038655;70;20055;-76
2023/04/02 01:21:42;;;;;;;;;;;;;;;7.76;63.21;91969.19;2038778;70;20081;-78
2023/04/02 01:24:10;;;;;;;;;;;;;;;7.58;62.96;91963.22;2038849;70;20060;-77
2023/04/02 01:26:36;;;;;;;;;;;;;;;7.69;63.32;91969.44;2038442;69;20528;-76
2023/04/02 01:29:12;;;;;;;;;;;;;;;7.79;63.18;91967.97;2038252;70;20063;-77
2023/04/02 01:31:39;;;;;;;;;;;;;;;7.78;62.06;91969.28;2044756;69;20062;-76
2023/04/02 01:34:06;;;;;;;;;;;;;;;7.83;62.25;91979.44;2065762;69;20500;-78
2023/04/02 01:36:43;;;;;;;;;;;;;;;7.77;62.26;91967.84;2052666;69;20051;-76
2023/04/02 01:39:22;;;;;;;;;;;;;;;7.83;63.03;91978.66;2065485;69;20174;-74
2023/04/02 01:42:08;;;;;;;;;;;;;;;7.79;62.78;91976.38;2052415;69;20099;-72
2023/04/02 01:44:37;;;;;;;;;;;;;;;7.49;64.52;91980.88;2052153;70;20120;-77
2023/04/02 01:47:07;;;;;;;;;;;;;;;7.61;63.81;91990.03;2064980;69;20067;-76
2023/04/02 01:49:36;;;;;;;;;;;;;;;7.76;62.99;91990.88;2065489;69;20063;-75
2023/04/02 01:52:02;;;;;;;;;;;;;;;7.68;63.68;91988.31;2062871;69;20046;-75
2023/04/02 01:54:30;;;;;;;;;;;;;;;7.77;63.17;91995.13;2051981;70;20083;-77
2023/04/02 01:56:59;;;;;;;;;;;;;;;7.77;62.26;91987.44;2052446;69;20068;-75
2023/04/02 01:59:25;;;;;;;;;;;;;;;7.76;62.62;91988.78;2052235;70;20047;-77
2023/04/02 02:02:09;;;;;;;;;;;;;;;7.75;63.40;91992.94;2052287;69;20055;-76
2023/04/02 02:04:38;;;;;;;;;;;;;;;7.36;64.70;92007.41;2065096;69;20054;-77
2023/04/02 02:07:15;;;;;;;;;;;;;;;7.62;63.66;92005.50;2052366;69;20055;-76
2023/04/02 02:09:46;;;;;;;;;;;;;;;7.70;64.21;92008.06;2065495;69;20046;-75
2023/04/02 02:12:13;;;;;;;;;;;;;;;7.72;64.32;91999.75;2052419;69;20470;-76
2023/04/02 02:14:44;;;;;;;;;;;;;;;7.74;64.61;92013.88;2052433;70;20055;-74
2023/04/02 02:17:14;;;;;;;;;;;;;;;7.59;64.16;92020.72;2065300;69;20077;-78
2023/04/02 02:19:45;;;;;;;;;;;;;;;7.49;63.76;92019.38;2062648;69;20113;-76
2023/04/02 02:22:26;;;;;;;;;;;;;;;7.63;63.53;92020.22;2065384;69;20085;-77
2023/04/02 02:24:52;;;;;;;;;;;;;;;7.70;63.82;92026.91;2052203;70;20098;-75
2023/04/02 02:27:27;;;;;;;;;;;;;;;7.71;63.45;92020.72;2065332;69;20049;-75
2023/04/02 02:30:16;;;;;;;;;;;;;;;7.80;63.53;92033.88;2065145;69;20452;-76
2023/04/02 02:32:47;;;;;;;;;;;;;;;7.87;63.60;92030.06;2052038;70;20053;-76
2023/04/02 02:35:19;;;;;;;;;;;;;;;7.86;62.42;92037.03;2052308;69;20176;-76
2023/04/02 02:37:50;;;;;;;;;;;;;;;7.83;61.43;92038.28;2064851;69;20146;-75
2023/04/02 02:40:19;;;;;;;;;;;;;;;7.83;61.66;92043.13;2052084;70;20053;-75
2023/04/02 02:42:51;;;;;;;;;;;;;;;7.77;62.17;92042.75;2065048;69;20132;-75
2023/04/02 02:45:20;;;;;;;;;;;;;;;7.76;62.82;92044.09;2064906;69;20047;-74
2023/04/02 02:47:47;;;;;;;;;;;;;;;7.56;63.42;92038.75;2052175;70;20049;-75
2023/04/02 02:50:30;;;;;;;;;;;;;;;7.70;63.81;92043.72;2065238;69;20055;-74
2023/04/02 02:53:01;;;;;;;;;;;;;;;7.73;64.43;92039.72;2065073;69;20154;-76
2023/04/02 02:55:33;;;;;;;;;;;;;;;7.75;64.31;92046.19;2064951;69;20062;-73
2023/04/02 02:58:30;;;;;;;;;;;;;;;7.75;63.90;92048.97;2060736;69;20144;-75
2023/04/02 03:01:04;;;;;;;;;;;;;;;7.67;65.53;92048.47;2065195;69;20146;-76
2023/04/02 03:03:32;;;;;;;;;;;;;;;7.72;65.04;92050.19;2065187;69;20067;-76
2023/04/02 03:06:06;;;;;;;;;;;;;;;7.70;65.15;92052.88;2065402;69;20173;-75
2023/04/02 03:08:35;;;;;;;;;;;;;;;7.72;65.32;92050.19;2065327;69;20490;-75
2023/04/02 03:11:05;;;;;;;;;;;;;;;7.69;65.22;92047.88;2052509;69;20065;-76
2023/04/02 03:13:34;;;;;;;;;;;;;;;7.45;65.66;92059.06;2065046;69;20066;-74
2023/04/02 03:16:00;;;;;;;;;;;;;;;7.36;65.94;92051.50;2065292;69;20468;-76
2023/04/02 03:18:26;;;;;;;;;;;;;;;7.62;65.07;92055.91;2051986;70;20585;-76
2023/04/02 03:20:55;;;;;;;;;;;;;;;7.57;65.15;92053.47;2062013;69;20047;-75
2023/04/02 03:23:24;;;;;;;;;;;;;;;7.49;65.80;92053.69;2065119;69;20085;-75
2023/04/02 03:26:09;;;;;;;;;;;;;;;7.52;65.68;92058.09;2052147;70;20093;-75
2023/04/02 03:28:40;;;;;;;;;;;;;;;7.44;65.88;92054.78;2062180;69;20395;-77
2023/04/02 03:31:29;;;;;;;;;;;;;;;7.38;66.48;92055.16;2064944;69;20061;-76
2023/04/02 03:34:01;;;;;;;;;;;;;;;7.36;67.31;92057.09;2061248;69;20050;-76
2023/04/02 03:36:42;;;;;;;;;;;;;;;7.37;66.88;92066.94;2065188;69;20066;-76
2023/04/02 03:39:19;;;;;;;;;;;;;;;7.46;66.34;92068.19;2065193;69;20140;-74
2023/04/02 03:42:07;;;;;;;;;;;;;;;7.35;66.15;92067.56;2052084;70;20054;-77
2023/04/02 03:44:37;;;;;;;;;;;;;;;7.32;67.34;92074.34;2064673;69;20184;-73
2023/04/02 03:47:18;;;;;;;;;;;;;;;7.28;67.26;92070.56;2065108;69;20074;-76
2023/04/02 03:49:48;;;;;;;;;;;;;;;7.32;66.49;92079.97;2051903;70;20522;-74
2023/04/02 03:52:25;;;;;;;;;;;;;;;7.33;66.22;92075.84;2065405;69;20050;-77
2023/04/02 03:54:53;;;;;;;;;;;;;;;7.38;65.92;92079.63;2065143;69;20406;-77
2023/04/02 03:57:41;;;;;;;;;;;;;;;7.34;65.71;92079.38;2052421;70;20448;-77
2023/04/02 04:00:15;;;;;;;;;;;;;;;7.37;66.23;92083.75;2065503;69;20123;-77
2023/04/02 04:02:51;;;;;;;;;;;;;;;7.34;66.14;92082.91;2060383;69;20128;-77
2023/04/02 04:05:20;;;;;;;;;;;;;;;7.44;65.21;92074.41;2065821;69;20061;-77
2023/04/02 04:07:50;;;;;;;;;;;;;;;7.41;64.58;92083.28;2065655;69;20057;-75
2023/04/02 04:10:19;;;;;;;;;;;;;;;7.37;65.21;92097.75;2052446;70;20607;-75
2023/04/02 04:12:49;;;;;;;;;;;;;;;7.39;64.73;92083.88;2065309;69;20474;-72
2023/04/02 04:15:25;;;;;;;;;;;;;;;7.36;64.22;92088.63;2065393;69;20050;-76
2023/04/02 04:18:00;;;;;;;;;;;;;;;7.51;63.63;92100.69;2065391;69;20101;-77
2023/04/02 04:20:55;;;;;;;;;;;;;;;7.31;65.06;92103.69;2065598;69;20173;-75
2023/04/02 04:23:29;;;;;;;;;;;;;;;7.31;65.63;92109.31;2065463;69;20471;-77
2023/04/02 04:26:08;;;;;;;;;;;;;;;7.33;65.27;92105.88;2065340;69;20058;-76
2023/04/02 04:28:40;;;;;;;;;;;;;;;7.29;65.41;92112.00;2062587;69;20086;-74
2023/04/02 04:31:16;;;;;;;;;;;;;;;7.33;65.28;92112.25;2065333;69;20090;-73
2023/04/02 04:33:49;;;;;;;;;;;;;;;7.24;66.22;92115.88;2062670;69;20051;-74
2023/04/02 04:36:29;;;;;;;;;;;;;;;7.19;65.63;92119.72;2065893;69;20054;-77
2023/04/02 04:39:06;;;;;;;;;;;;;;;7.17;66.24;92128.00;2053685;70;20402;-73
2023/04/02 04:41:35;;;;;;;;;;;;;;;7.13;66.21;92131.28;2065340;69;20124;-77
2023/04/02 04:44:05;;;;;;;;;;;;;;;7.01;66.01;92133.31;2065374;69;20116;-76
2023/04/02 04:46:36;;;;;;;;;;;;;;;6.97;66.42;92135.13;2065261;69;20074;-77
2023/04/02 04:49:08;;;;;;;;;;;;;;;6.87;66.55;92141.50;2065452;69;20058;-77
2023/04/02 04:51:45;;;;;;;;;;;;;;;6.79;67.18;92148.66;2065254;69;20054;-76
2023/04/02 04:54:12;;;;;;;;;;;;;;;6.73;66.81;92143.38;2062597;69;20062;-78
2023/04/02 04:56:39;;;;;;;;;;;;;;;6.65;66.59;92144.91;2062725;69;20078;-77
2023/04/02 04:59:21;;;;;;;;;;;;;;;6.67;66.27;92154.16;2065342;69;20059;-76
2023/04/02 05:01:48;;;;;;;;;;;;;;;6.61;66.95;92153.78;2064970;69;20510;-77
2023/04/02 05:04:19;;;;;;;;;;;;;;;6.65;66.52;92161.69;2065305;69;20627;-76
2023/04/02 05:06:51;;;;;;;;;;;;;;;6.50;67.80;92160.00;2065491;69;20053;-77
2023/04/02 05:09:24;;;;;;;;;;;;;;;6.53;67.08;92161.63;2062792;69;20054;-72
2023/04/02 05:12:01;;;;;;;;;;;;;;;6.45;66.36;92166.66;2066405;69;20069;-76
2023/04/02 05:14:34;;;;;;;;;;;;;;;6.43;66.75;92164.47;2066515;69;20051;-76
2023/04/02 05:17:14;;;;;;;;;;;;;;;6.28;65.40;92137.63;2052955;69;20402;-76
2023/04/02 05:20:08;;;;;;;;;;;;;;;6.30;67.19;92162.91;2068178;69;20059;-78
2023/04/02 05:22:40;;;;;;;;;;;;;;;6.35;66.74;92156.25;2068424;69;20487;-75
2023/04/02 05:25:11;;;;;;;;;;;;;;;6.32;66.65;92167.91;2055335;70;20066;-75
2023/04/02 05:27:51;;;;;;;;;;;;;;;6.31;66.65;92153.19;2066739;69;20054;-76
2023/04/02 05:30:23;;;;;;;;;;;;;;;6.33;66.23;92164.53;2066131;69;20074;-75
2023/04/02 05:32:57;;;;;;;;;;;;;;;6.17;66.86;92165.47;2065766;69;20064;-77
2023/04/02 05:35:30;;;;;;;;;;;;;;;6.17;66.77;92168.28;2065492;69;20074;-76
2023/04/02 05:37:57;;;;;;;;;;;;;;;6.15;66.47;92163.28;2065600;69;20117;-76
2023/04/02 05:40:49;;;;;;;;;;;;;;;6.23;66.48;92169.44;2065436;69;20058;-77
2023/04/02 05:43:16;;;;;;;;;;;;;;;6.20;67.11;92169.88;2051812;69;20145;-77
2023/04/02 05:45:45;;;;;;;;;;;;;;;6.00;67.69;92164.41;2065598;69;20512;-76
2023/04/02 05:48:20;;;;;;;;;;;;;;;5.79;68.94;92173.41;2065504;69;20486;-72
2023/04/02 05:50:51;;;;;;;;;;;;;;;6.11;67.87;92174.94;2063228;69;20051;-77
2023/04/02 05:53:34;;;;;;;;;;;;;;;6.06;67.87;92178.78;2065925;69;20046;-76
2023/04/02 05:56:20;;;;;;;;;;;;;;;6.25;66.71;92180.75;2063198;69;20066;-72
2023/04/02 05:58:54;;;;;;;;;;;;;;;5.86;68.79;92191.28;2060995;69;20177;-75
2023/04/02 06:01:51;;;;;;;;;;;;;;;6.03;68.00;92193.19;2052618;70;20055;-76
2023/04/02 06:04:57;;;;;;;;;;;;;;;6.05;68.58;92196.13;2065709;69;20563;-74
2023/04/02 06:07:39;;;;;;;;;;;;;;;6.14;68.02;92195.38;2035578;70;20056;-78
2023/04/02 06:10:29;;;;;;;;;;;;;;;6.29;67.69;92203.38;2035639;70;20056;-75
2023/04/02 06:13:01;;;;;;;;;;;;;;;6.24;67.78;92204.44;2039659;70;20059;-73
2023/04/02 06:15:28;;;;;;;;;;;;;;;6.23;68.18;92202.97;2035602;70;20475;-76
2023/04/02 06:18:15;;;;;;;;;;;;;;;6.26;67.58;92201.78;2035497;70;20055;-77
2023/04/02 06:20:41;;;;;;;;;;;;;;;6.41;67.30;92208.31;2038273;70;20274;-78
2023/04/02 06:23:06;;;;;;;;;;;;;;;6.33;67.96;92216.91;2051650;69;20081;-78
2023/04/02 06:25:36;;;;;;;;;;;;;;;6.23;68.69;92222.53;2035648;70;20091;-77
2023/04/02 06:28:05;;;;;;;;;;;;;;;6.52;68.24;92216.09;2035471;70;20419;-77
2023/04/02 06:30:32;;;;;;;;;;;;;;;6.53;68.06;92223.13;2038523;70;20584;-78
2023/04/02 06:32:59;;;;;;;;;;;;;;;6.72;67.88;92220.22;2035548;70;20520;-75
2023/04/02 06:35:27;;;;;;;;;;;;;;;6.77;67.14;92218.44;2035708;70;20062;-75
2023/04/02 06:38:02;;;;;;;;;;;;;;;6.67;68.09;92228.94;2035309;70;20072;-75
2023/04/02 06:40:36;;;;;;;;;;;;;;;6.75;67.71;92229.50;2038440;70;20230;-73
2023/04/02 06:43:15;;;;;;;;;;;;;;;6.76;67.09;92237.28;2048400;69;20058;-74
2023/04/02 06:46:00;;;;;;;;;;;;;;;6.60;67.79;92241.81;2065091;69;20051;-73
2023/04/02 06:48:32;;;;;;;;;;;;;;;6.79;67.36;92240.97;2065122;69;20143;-76
2023/04/02 06:51:02;;;;;;;;;;;;;;;6.81;67.53;92241.09;2065192;69;20166;-74
2023/04/02 06:53:32;;;;;;;;;;;;;;;6.83;67.36;92244.78;2052233;69;20108;-77
2023/04/02 06:56:04;;;;;;;;;;;;;;;7.25;66.35;92251.72;2065171;69;20121;-75
2023/04/02 06:58:31;;;;;;;;;;;;;;;7.49;65.80;92251.81;2065140;69;20436;-77
2023/04/02 07:00:57;;;;;;;;;;;;;;;7.42;65.10;92255.56;2052217;70;20055;-76
2023/04/02 07:03:32;;;;;;;;;;;;;;;7.44;66.00;92252.91;2065341;69;20597;-75
2023/04/02 07:06:04;;;;;;;;;;;;;;;7.66;64.30;92256.41;2065534;69;20150;-75
2023/04/02 07:08:32;;;;;;;;;;;;;;;7.80;64.08;92244.03;2065191;69;20422;-75
2023/04/02 07:10:57;;;;;;;;;;;;;;;7.77;64.52;92250.09;2065138;69;20483;-77
2023/04/02 07:13:28;;;;;;;;;;;;;;;8.21;62.53;92246.56;2052037;70;20093;-78
2023/04/02 07:15:55;;;;;;;;;;;;;;;8.44;62.93;92239.56;2065100;69;20062;-79
2023/04/02 07:18:30;;;;;;;;;;;;;;;8.38;63.05;92240.66;2065232;69;20053;-78
2023/04/02 07:20:58;;;;;;;;;;;;;;;8.54;62.19;92242.97;2065013;69;20062;-79
2023/04/02 07:23:24;;;;;;;;;;;;;;;8.59;62.56;92230.66;2065090;69;20050;-78
2023/04/02 07:25:51;;;;;;;;;;;;;;;8.32;62.04;92240.25;2049201;70;20047;-76
2023/04/02 07:28:17;;;;;;;;;;;;;;;8.64;60.78;92235.16;2052770;69;20074;-74
2023/04/02 07:30:43;;;;;;;;;;;;;;;8.49;59.60;92242.00;2052772;70;20384;-74
2023/04/02 07:33:15;;;;;;;;;;;;;;;8.91;60.59;92241.00;2065611;69;20043;-74
2023/04/02 07:35:41;;;;;;;;;;;;;;;9.07;60.43;92246.09;2053383;70;20146;-74
2023/04/02 07:38:08;;;;;;;;;;;;;;;9.38;59.54;92246.53;2053574;70;20051;-75
2023/04/02 07:40:34;;;;;;;;;;;;;;;9.00;58.79;92244.31;2052843;70;20047;-75
2023/04/02 07:42:59;;;;;;;;;;;;;;;8.89;59.60;92249.31;2046300;70;20146;-74
2023/04/02 07:45:25;;;;;;;;;;;;;;;9.19;59.10;92255.25;2052611;69;20051;-78
2023/04/02 07:47:52;;;;;;;;;;;;;;;9.06;59.03;92259.41;2052574;70;20119;-81
2023/04/02 07:50:18;;;;;;;;;;;;;;;9.24;59.82;92259.03;2052651;70;20055;-81
2023/04/02 07:52:44;;;;;;;;;;;;;;;9.91;58.77;92266.41;2052582;69;20051;-80
2023/04/02 07:55:11;;;;;;;;;;;;;;;10.11;58.09;92266.06;2052665;70;20051;-81
2023/04/02 07:57:47;;;;;;;;;;;;;;;10.33;57.28;92270.13;2052609;70;20101;-78
2023/04/02 08:00:13;;;;;;;;;;;;;;;10.06;56.57;92273.56;2052634;70;20086;-78
2023/04/02 08:02:39;;;;;;;;;;;;;;;9.70;56.04;92271.50;2052451;70;20488;-77
2023/04/02 08:05:06;;;;;;;;;;;;;;;10.09;56.05;92269.50;2052630;70;20055;-78
2023/04/02 08:07:32;;;;;;;;;;;;;;;9.90;56.49;92270.56;2052750;70;20047;-78
2023/04/02 08:09:57;;;;;;;;;;;;;;;9.83;57.14;92277.19;2052555;69;20058;-76
2023/04/02 08:12:23;;;;;;;;;;;;;;;9.79;56.87;92273.41;2052606;70;20451;-74
2023/04/02 08:14:48;;;;;;;;;;;;;;;10.73;56.84;92270.88;2065531;69;20047;-74
2023/04/02 08:17:14;;;;;;;;;;;;;;;10.82;56.94;92272.75;2052473;70;20067;-78
2023/04/02 08:19:40;;;;;;;;;;;;;;;11.01;55.83;92279.34;2052598;70;20057;-79
2023/04/02 08:22:05;;;;;;;;;;;;;;;11.04;54.83;92278.09;2052718;70;20071;-80
2023/04/02 08:24:31;;;;;;;;;;;;;;;11.24;54.63;92278.44;2052722;70;20082;-82
2023/04/02 08:26:56;;;;;;;;;;;;;;;10.92;53.52;92278.91;2052646;70;20395;-82
2023/04/02 08:29:22;;;;;;;;;;;;;;;11.49;52.87;92272.66;2052643;69;20062;-76
2023/04/02 08:31:49;;;;;;;;;;;;;;;11.59;52.80;92276.00;2052327;69;20050;-79
2023/04/02 08:34:14;;;;;;;;;;;;;;;11.91;52.86;92271.28;2052510;70;20046;-77
2023/04/02 08:36:42;;;;;;;;;;;;;;;12.23;52.65;92267.81;2052596;70;20049;-74
2023/04/02 08:39:10;;;;;;;;;;;;;;;12.44;51.26;92279.44;2052368;70;20050;-75
2023/04/02 08:41:38;;;;;;;;;;;;;;;13.01;52.23;92264.34;2052446;69;20050;-75
2023/04/02 08:44:10;;;;;;;;;;;;;;;13.69;50.58;92256.72;2052702;70;20101;-74
2023/04/02 08:46:40;;;;;;;;;;;;;;;13.75;48.37;92267.56;2052569;70;20046;-73
2023/04/02 08:49:13;;;;;;;;;;;;;;;14.38;47.67;92264.47;2052699;70;20142;-80
2023/04/02 08:51:39;;;;;;;;;;;;;;;14.70;46.77;92270.72;2065516;69;20050;-80
2023/04/02 08:54:08;;;;;;;;;;;;;;;15.22;44.14;92265.59;2052475;69;20046;-79
2023/04/02 08:56:40;;;;;;;;;;;;;;;15.33;43.82;92263.84;2052514;70;20065;-78
2023/04/02 08:59:15;;;;;;;;;;;;;;;16.03;43.20;92262.03;2052831;69;20042;-78
2023/04/02 09:01:52;;;;;;;;;;;;;;;15.38;41.36;92266.16;2052410;70;20070;-80
2023/04/02 09:04:23;;;;;;;;;;;;;;;14.66;43.50;92262.03;2052609;70;20508;-79
2023/04/02 09:06:51;;;;;;;;;;;;;;;15.32;43.44;92262.38;2052598;70;20057;-79
2023/04/02 09:09:17;;;;;;;;;;;;;;;16.04;40.63;92259.97;2062684;69;20051;-77
2023/04/02 09:11:48;;;;;;;;;;;;;;;15.68;39.15;92268.66;2052405;70;20155;-78
2023/04/02 09:14:18;;;;;;;;;;;;;;;15.40;39.30;92262.69;2052485;70;20089;-78
2023/04/02 09:16:46;;;;;;;;;;;;;;;15.23;38.72;92267.03;2052558;69;20050;-79
2023/04/02 09:19:14;;;;;;;;;;;;;;;15.17;39.39;92269.66;2052556;70;20470;-81
2023/04/02 09:21:45;;;;;;;;;;;;;;;14.76;40.33;92278.72;2054636;69;20126;-77
2023/04/02 09:24:14;;;;;;;;;;;;;;;14.95;39.17;92281.59;2054543;70;20171;-80
2023/04/02 09:26:40;;;;;;;;;;;;;;;14.52;38.41;92282.03;2053113;70;20058;-80
2023/04/02 09:29:07;;;;;;;;;;;;;;;14.67;37.99;92284.06;2055246;70;20442;-76
2023/04/02 09:31:37;;;;;;;;;;;;;;;15.10;39.29;92284.97;2054702;70;20039;-80
2023/04/02 09:34:23;;;;;;;;;;;;;;;14.83;38.72;92283.25;2053108;69;20061;-81
2023/04/02 09:36:50;;;;;;;;;;;;;;;15.36;38.97;92293.72;2054921;70;20226;-78
2023/04/02 09:39:21;;;;;;;;;;;;;;;15.23;37.95;92281.94;2058474;70;20050;-77
2023/04/02 09:41:46;;;;;;;;;;;;;;;14.27;39.48;92279.59;2058666;69;20144;-79
2023/04/02 09:44:25;;;;;;;;;;;;;;;13.75;39.06;92279.63;2056505;70;20169;-81
2023/04/02 09:46:58;;;;;;;;;;;;;;;14.48;40.23;92284.75;2068261;69;20050;-78
2023/04/02 09:49:28;;;;;;;;;;;;;;;14.48;38.40;92281.91;2071300;69;20142;-79
2023/04/02 09:52:15;;;;;;;;;;;;;;;14.87;38.35;92280.56;2059302;70;20054;-76
2023/04/02 09:54:41;;;;;;;;;;;;;;;14.81;38.47;92286.00;2057885;70;20449;-82
2023/04/02 09:57:23;;;;;;;;;;;;;;;14.97;38.71;92280.94;2053739;69;20050;-82
2023/04/02 10:00:10;;;;;;;;;;;;;;;16.50;36.46;92289.88;2065871;69;20050;-83
2023/04/02 10:02:38;;;;;;;;;;;;;;;15.30;37.42;92288.53;2052681;70;20057;-80
2023/04/02 10:05:05;;;;;;;;;;;;;;;15.72;36.98;92283.72;2065596;69;20050;-80
2023/04/02 10:07:31;;;;;;;;;;;;;;;15.78;36.40;92291.00;2052936;69;20051;-83
2023/04/02 10:10:00;;;;;;;;;;;;;;;14.96;36.28;92282.31;2058458;70;20023;-82
2023/04/02 10:12:28;;;;;;;;;;;;;;;14.77;36.97;92300.00;2059755;70;20030;-82
2023/04/02 10:14:55;;;;;;;;;;;;;;;15.21;35.90;92298.13;2073145;69;20046;-81
2023/04/02 10:17:23;;;;;;;;;;;;;;;15.46;36.27;92297.66;2058882;70;20047;-79
2023/04/02 10:20:16;;;;;;;;;;;;;;;15.21;36.36;92298.88;2059777;70;20047;-80
2023/04/02 10:22:42;;;;;;;;;;;;;;;15.46;37.45;92297.66;2055793;69;20459;-81
2023/04/02 10:25:14;;;;;;;;;;;;;;;15.13;36.63;92297.84;2054638;70;20038;-81
2023/04/02 10:28:01;;;;;;;;;;;;;;;15.12;36.25;92293.53;2053145;70;20050;-81
2023/04/02 10:30:34;;;;;;;;;;;;;;;15.40;38.80;92296.72;2065560;69;20136;-80
2023/04/02 10:32:59;;;;;;;;;;;;;;;15.45;38.49;92298.31;2052255;70;20507;-81
2023/04/02 10:35:57;;;;;;;;;;;;;;;15.54;38.17;92293.69;2052698;70;20171;-80
2023/04/02 10:38:28;;;;;;;;;;;;;;;15.77;37.45;92300.91;2038998;70;20052;-81
2023/04/02 10:41:03;;;;;;;;;;;;;;;15.83;37.97;92301.09;2040431;70;20138;-73
2023/04/02 10:43:31;;;;;;;;;;;;;;;15.51;36.68;92301.38;2041614;70;20060;-74
2023/04/02 10:46:04;;;;;;;;;;;;;;;15.68;37.49;92294.94;2039345;70;20143;-74
2023/04/02 10:48:50;;;;;;;;;;;;;;;15.84;36.18;92308.22;2038752;70;20078;-77
2023/04/02 10:51:27;;;;;;;;;;;;;;;15.87;35.39;92304.81;2038750;69;20118;-77
2023/04/02 10:53:55;;;;;;;;;;;;;;;15.96;36.78;92300.88;2038507;70;20080;-74
2023/04/02 10:56:22;;;;;;;;;;;;;;;16.10;35.99;92303.47;2038413;70;20057;-74
2023/04/02 10:59:01;;;;;;;;;;;;;;;16.02;35.41;92306.75;2038132;70;20056;-77
2023/04/02 11:01:28;;;;;;;;;;;;;;;16.13;34.04;92307.84;2038132;70;20056;-77
2023/04/02 11:04:04;;;;;;;;;;;;;;;15.89;31.84;92306.97;2038374;70;20567;-77
2023/04/02 11:06:48;;;;;;;;;;;;;;;16.30;32.51;92305.53;2038835;70;20094;-77
2023/04/02 11:09:20;;;;;;;;;;;;;;;16.46;32.81;92301.13;2039308;70;20059;-80
2023/04/02 11:11:50;;;;;;;;;;;;;;;16.63;32.25;92304.47;2038709;70;20135;-80
2023/04/02 11:14:18;;;;;;;;;;;;;;;16.95;32.21;92302.69;2046977;70;20105;-80
2023/04/02 11:16:43;;;;;;;;;;;;;;;16.21;33.05;92302.41;2065054;69;20066;-78
2023/04/02 11:19:15;;;;;;;;;;;;;;;17.02;32.78;92303.59;2052178;70;20062;-81
2023/04/02 11:21:41;;;;;;;;;;;;;;;17.18;31.12;92314.72;2052169;70;20050;-80
2023/04/02 11:24:28;;;;;;;;;;;;;;;17.69;30.53;92314.13;2052185;70;20050;-80
2023/04/02 11:27:03;;;;;;;;;;;;;;;16.66;30.55;92311.69;2052171;70;20085;-80
2023/04/02 11:29:30;;;;;;;;;;;;;;;16.67;30.72;92304.59;2051994;70;20137;-81
2023/04/02 11:32:14;;;;;;;;;;;;;;;15.51;30.60;92304.22;2051943;70;20479;-80
2023/04/02 11:34:47;;;;;;;;;;;;;;;15.94;30.97;92314.25;2052193;69;20638;-78
2023/04/02 11:37:31;;;;;;;;;;;;;;;16.58;31.63;92317.09;2052250;70;20433;-79
2023/04/02 11:39:58;;;;;;;;;;;;;;;15.14;31.77;92302.88;2052004;70;20171;-80
2023/04/02 11:42:28;;;;;;;;;;;;;;;14.53;32.84;92311.84;2052281;70;20043;-81
2023/04/02 11:44:55;;;;;;;;;;;;;;;15.09;32.74;92317.53;2052135;70;20050;-82
2023/04/02 11:47:24;;;;;;;;;;;;;;;15.80;32.71;92319.44;2051955;69;20131;-75
2023/04/02 11:50:03;;;;;;;;;;;;;;;14.64;32.90;92319.34;2052169;70;20053;-75
2023/04/02 11:52:46;;;;;;;;;;;;;;;14.86;31.79;92327.28;2052075;69;20058;-75
2023/04/02 11:55:23;;;;;;;;;;;;;;;15.10;31.76;92327.50;2052443;70;20066;-75
2023/04/02 11:58:01;;;;;;;;;;;;;;;14.28;32.38;92320.69;2054116;70;20061;-75
2023/04/02 12:00:32;;;;;;;;;;;;;;;13.94;32.84;92326.38;2052304;70;20141;-76
2023/04/02 12:03:03;;;;;;;;;;;;;;;14.78;33.45;92327.69;2052160;69;20142;-75
2023/04/02 12:05:38;;;;;;;;;;;;;;;14.34;32.50;92329.44;2052015;70;20050;-76
2023/04/02 12:08:22;;;;;;;;;;;;;;;14.52;33.32;92321.69;2051986;70;20070;-75
2023/04/02 12:10:53;;;;;;;;;;;;;;;15.19;32.28;92329.25;2052143;70;20051;-78
2023/04/02 12:13:20;;;;;;;;;;;;;;;14.84;32.66;92330.03;2052655;70;20050;-76
2023/04/02 12:15:48;;;;;;;;;;;;;;;14.80;32.01;92327.78;2052688;69;20054;-76
2023/04/02 12:18:16;;;;;;;;;;;;;;;14.56;32.41;92332.47;2052467;70;20062;-79
2023/04/02 12:20:54;;;;;;;;;;;;;;;14.80;31.65;92335.53;2065400;69;20077;-76
2023/04/02 12:23:25;;;;;;;;;;;;;;;14.66;31.87;92330.03;2052609;70;20170;-77
2023/04/02 12:25:58;;;;;;;;;;;;;;;14.47;31.54;92334.94;2052572;70;20043;-76
2023/04/02 12:28:27;;;;;;;;;;;;;;;15.59;32.00;92330.03;2052201;69;20081;-77
2023/04/02 12:31:04;;;;;;;;;;;;;;;15.65;30.42;92332.38;2052285;69;20050;-79
2023/04/02 12:33:37;;;;;;;;;;;;;;;14.80;31.91;92336.28;2051740;70;20070;-78
2023/04/02 12:36:08;;;;;;;;;;;;;;;15.77;32.39;92334.94;2052359;70;20053;-77
2023/04/02 12:38:42;;;;;;;;;;;;;;;15.70;32.31;92334.72;2052210;69;20059;-77
2023/04/02 12:41:28;;;;;;;;;;;;;;;15.86;32.08;92336.69;2052071;70;20568;-77
2023/04/02 12:44:03;;;;;;;;;;;;;;;15.89;31.65;92347.44;2052219;70;20134;-76
2023/04/02 12:46:29;;;;;;;;;;;;;;;15.83;32.58;92346.50;2052094;70;20057;-78
2023/04/02 12:49:00;;;;;;;;;;;;;;;15.74;32.11;92354.00;2052165;70;20058;-76
2023/04/02 12:51:26;;;;;;;;;;;;;;;14.49;33.79;92351.34;2062664;69;20482;-80
2023/04/02 12:53:51;;;;;;;;;;;;;;;14.54;34.08;92352.94;2052698;70;20072;-76
2023/04/02 12:56:21;;;;;;;;;;;;;;;15.50;33.21;92348.88;2053299;70;20051;-79
2023/04/02 12:58:53;;;;;;;;;;;;;;;15.42;32.33;92351.41;2052391;70;20062;-79
2023/04/02 13:01:22;;;;;;;;;;;;;;;15.34;33.79;92353.94;2052276;69;20461;-79
2023/04/02 13:04:07;;;;;;;;;;;;;;;14.45;35.09;92353.97;2052534;70;20066;-80
2023/04/02 13:06:35;;;;;;;;;;;;;;;15.18;34.37;92364.66;2052407;70;20054;-80
2023/04/02 13:09:05;;;;;;;;;;;;;;;15.42;33.35;92373.38;2052592;70;20096;-75
2023/04/02 13:11:38;;;;;;;;;;;;;;;15.79;33.94;92364.13;2052525;70;20571;-80
2023/04/02 13:14:06;;;;;;;;;;;;;;;16.00;34.10;92359.91;2052748;70;20051;-80
2023/04/02 13:16:34;;;;;;;;;;;;;;;16.16;33.15;92368.97;2052243;70;20524;-78
2023/04/02 13:19:09;;;;;;;;;;;;;;;16.21;33.43;92367.00;2052448;70;20496;-75
2023/04/02 13:21:34;;;;;;;;;;;;;;;14.83;34.60;92368.25;2052098;70;20097;-77